Weather reports worldwide

Advertisment
Blencathra, United Kingdom (99143): temperature & dewpoint: 03.04.2020 12:00:00 - 09.04.2020 12:00:00 (BST)Blencathra, United Kingdom (99143): precipitation: 03.04.2020 12:00:00 - 09.04.2020 12:00:00 (BST)
Date & Time tt [°C] td [°C] rr [mm]
09.04.2020 12:00:00 12,6 7,3 0,0
09.04.2020 11:00:00 11,4 7,4 0,0
09.04.2020 10:00:00 10,0 6,4 0,0
09.04.2020 09:00:00 10,3 6,5 0,0
09.04.2020 08:00:00 9,7 5,4 0,0
09.04.2020 07:00:00 8,4 4,0 0,0
09.04.2020 06:00:00 8,3 3,8 0,0
09.04.2020 05:00:00 7,1 3,8 0,0
09.04.2020 04:00:00 6,9 3,8 0,0
09.04.2020 03:00:00 7,6 4,0 0,0
09.04.2020 02:00:00 7,9 3,4 0,0
09.04.2020 01:00:00 7,6 3,3 0,0
09.04.2020 00:00:00 7,9 3,4 0,0
08.04.2020 23:00:00 8,7 2,9 0,0
08.04.2020 22:00:00 9,6 2,6 0,0
08.04.2020 21:00:00 9,9 3,5 0,0
08.04.2020 20:00:00 11,1 4,1 0,0
08.04.2020 19:00:00 12,8 5,0 0,0
08.04.2020 18:00:00 13,7 5,5 0,0
08.04.2020 17:00:00 14,7 6,5 0,0
08.04.2020 16:00:00 15,2 5,7 0,0
08.04.2020 15:00:00 15,1 5,1 0,0
08.04.2020 14:00:00 14,8 5,0 0,0
08.04.2020 13:00:00 15,2 5,2 0,0
08.04.2020 12:00:00 13,5 4,2 0,0
08.04.2020 11:00:00 12,3 3,5 0,0
08.04.2020 10:00:00 11,3 2,8 0,0
08.04.2020 09:00:00 10,1 2,5 0,0
08.04.2020 08:00:00 10,2 3,6 0,0
08.04.2020 07:00:00 7,6 1,5 0,0
08.04.2020 06:00:00 8,3 1,8 0,0
08.04.2020 05:00:00 8,9 1,7 0,0
08.04.2020 04:00:00 8,7 1,4 0,0
08.04.2020 03:00:00 8,4 1,3 0,0
08.04.2020 02:00:00 9,2 1,7 0,0
08.04.2020 01:00:00 9,4 2,1 0,0
08.04.2020 00:00:00 9,2 2,4 0,0
07.04.2020 23:00:00 8,8 2,2 0,0
07.04.2020 22:00:00 9,4 2,5 0,0
07.04.2020 21:00:00 10,1 2,6 0,0
07.04.2020 20:00:00 11,0 3,2 0,0
07.04.2020 19:00:00 12,5 3,3 0,0
07.04.2020 18:00:00 13,1 2,1 0,0
07.04.2020 17:00:00 13,1 1,4 0,0
07.04.2020 16:00:00 13,5 1,8 0,0
07.04.2020 15:00:00 13,6 2,0 0,0
07.04.2020 14:00:00 13,0 2,3 0,0
07.04.2020 13:00:00 13,0 2,9 0,0
07.04.2020 12:00:00 10,8 4,5 0,0
07.04.2020 11:00:00 10,2 5,2 0,0
07.04.2020 10:00:00 7,6 4,7 0,0
07.04.2020 09:00:00 6,9 5,2 0,0
07.04.2020 08:00:00 6,2 4,9 0,0
07.04.2020 07:00:00 5,8 4,6 0,0
07.04.2020 06:00:00 5,6 4,1 0,0
07.04.2020 05:00:00 5,9 4,5 0,0
07.04.2020 04:00:00 5,9 4,6 0,0
07.04.2020 03:00:00 6,0 3,7 0,0
07.04.2020 02:00:00 6,4 3,8 0,0
07.04.2020 01:00:00 6,3 3,9 0,0
07.04.2020 00:00:00 6,6 3,8 0,0
06.04.2020 23:00:00 7,1 3,5 0,0
06.04.2020 22:00:00 7,2 3,4 0,0
06.04.2020 21:00:00 7,8 2,7 0,0
06.04.2020 20:00:00 8,5 2,7 0,0
06.04.2020 19:00:00 9,4 2,8 0,0
06.04.2020 18:00:00 10,2 3,3 0,0
06.04.2020 17:00:00 10,3 3,5 0,0
06.04.2020 16:00:00 10,7 3,2 0,0
06.04.2020 15:00:00 10,7 3,7 0,0
06.04.2020 14:00:00 10,0 3,6 0,0
06.04.2020 13:00:00 8,9 3,4 0,0
06.04.2020 12:00:00 8,9 3,8 0,0
06.04.2020 11:00:00 8,8 4,0 0,2
06.04.2020 10:00:00 8,2 4,7 0,0
06.04.2020 09:00:00 7,9 5,4 0,6
06.04.2020 08:00:00 7,6 6,5 1,4
06.04.2020 07:00:00 7,9 6,1 0,0
06.04.2020 06:00:00 8,5 5,8 0,0
06.04.2020 05:00:00 8,9 6,4 0,2
06.04.2020 04:00:00 9,2 7,3 1,0
06.04.2020 03:00:00 10,6 9,3 0,8
06.04.2020 02:00:00 11,5 8,7 1,0
06.04.2020 01:00:00 12,9 7,5 0,2
06.04.2020 00:00:00 12,3 7,9 0,6
05.04.2020 23:00:00 12,6 7,8 0,6
05.04.2020 22:00:00 14,4 6,4 0,0
05.04.2020 21:00:00 15,3 5,1 0,0
05.04.2020 20:00:00 15,8 4,3 0,0
05.04.2020 19:00:00 16,4 4,1 0,0
05.04.2020 18:00:00 17,2 3,8 0,0
05.04.2020 17:00:00 18,2 2,7 0,0
05.04.2020 16:00:00 18,4 3,2 0,0
05.04.2020 15:00:00 17,0 3,6 0,0
05.04.2020 14:00:00 15,9 2,2 0,0
05.04.2020 13:00:00 15,2 3,3 0,0
05.04.2020 12:00:00 13,8 3,2 0,0
05.04.2020 11:00:00 12,8 2,4 0,0
05.04.2020 10:00:00 12,1 3,0 0,0
05.04.2020 09:00:00 10,0 2,3 0,0
05.04.2020 08:00:00 8,6 2,0 0,0
05.04.2020 07:00:00 7,8 1,6 0,0
05.04.2020 06:00:00 7,1 1,1 0,0
05.04.2020 05:00:00 7,1 1,2 0,0
05.04.2020 04:00:00 7,4 1,5 0,0
05.04.2020 03:00:00 7,4 2,2 0,0
05.04.2020 02:00:00 7,9 3,2 0,0
05.04.2020 01:00:00 8,4 3,4 0,0
05.04.2020 00:00:00 8,5 3,7 0,0
04.04.2020 23:00:00 8,6 4,9 0,0
04.04.2020 22:00:00 9,0 5,4 0,0
04.04.2020 21:00:00 8,8 5,4 0,0
04.04.2020 20:00:00 8,9 5,1 0,0
04.04.2020 19:00:00 9,2 4,9 0,0
04.04.2020 18:00:00 9,4 3,5 0,0
04.04.2020 17:00:00 9,2 1,6 0,0
04.04.2020 16:00:00 9,9 1,5 0,0
04.04.2020 15:00:00 9,3 1,6 0,0
04.04.2020 14:00:00 8,0 2,3 0,0
04.04.2020 13:00:00 6,5 3,6 0,2
04.04.2020 12:00:00 7,7 2,4 0,0
04.04.2020 11:00:00 7,5 2,3 0,0
04.04.2020 10:00:00 7,0 3,1 0,0
04.04.2020 09:00:00 6,9 3,6 0,0
04.04.2020 08:00:00 6,2 4,6 0,0
04.04.2020 07:00:00 6,3 4,5 0,0
04.04.2020 06:00:00 6,4 4,6 0,0
04.04.2020 05:00:00 6,3 4,1 0,0
04.04.2020 04:00:00 6,2 3,6 0,0
04.04.2020 03:00:00 6,6 4,1 0,0
04.04.2020 02:00:00 7,0 4,6 0,0
04.04.2020 01:00:00 6,8 4,8 0,0
04.04.2020 00:00:00 6,1 4,3 0,0
03.04.2020 23:00:00 6,4 5,0 0,0
03.04.2020 22:00:00 6,7 4,9 0,0
03.04.2020 21:00:00 6,3 5,0 0,2
03.04.2020 20:00:00 5,3 4,0 0,4
03.04.2020 19:00:00 5,5 4,0 0,0
03.04.2020 18:00:00 6,3 3,1 0,0
03.04.2020 17:00:00 6,7 2,2 0,0
03.04.2020 16:00:00 6,7 2,8 0,0
03.04.2020 15:00:00 6,1 2,2 0,0
03.04.2020 14:00:00 5,9 1,6 0,0
03.04.2020 13:00:00 5,7 1,2 0,0
03.04.2020 12:00:00 5,3 2,1 0,0

tt = temperature
td = dewpoint
rr = precipitation

Next stations